EST,Max TemperatureF,Mean TemperatureF,Min TemperatureF,Max Dew PointF,MeanDew PointF,Min DewpointF,Max Humidity, Mean Humidity, Min Humidity, Max Sea Level PressureIn, Mean Sea Level PressureIn, Min Sea Level PressureIn, Max VisibilityMiles, Mean VisibilityMiles, Min VisibilityMiles, Max Wind SpeedMPH, Mean Wind SpeedMPH, Max Gust SpeedMPH,PrecipitationIn, CloudCover, Events, WindDirDegrees
2013-11-1,84,78,73,77,75,72,94,80,69,30.09,29.97,29.91,12,7,6,9,5,,0.03,4,,168
2013-11-2,84,80,75,75,73,72,94,79,66,29.91,29.87,29.82,6,6,6,12,5,,0.00,3,,222
2013-11-3,80,78,77,66,65,64,65,62,58,29.96,29.94,29.91,6,6,6,17,14,,0.00,3,,37
2013-11-4,78,74,71,72,69,64,83,75,68,30.05,30.03,30.00,12,7,6,23,13,,0.01,5,Rain,64
2013-11-5,82,74,67,73,71,70,83,74,60,30.07,30.04,30.01,12,7,6,16,13,,0.00,6,Rain,90
2013-11-6,82,76,71,75,72,70,94,81,66,30.05,30.02,29.98,12,7,6,13,6,,0.00,3,Rain,61
2013-11-7,80,75,70,77,75,72,100,93,89,29.99,29.95,29.91,12,7,6,12,6,,0.00,5,Fog,17
2013-11-8,82,78,73,75,74,72,100,84,73,30.02,29.98,29.94,12,7,6,20,13,,0.00,3,Rain,48
2013-11-9,77,74,71,72,71,70,100,88,78,30.12,30.09,30.06,6,5,3,20,11,,0.00,7,Rain,83
2013-11-10,82,78,73,73,65,-8,88,72,4,30.11,30.08,30.04,6,6,6,14,8,,0.00,5,,65
2013-11-11,82,78,73,73,71,66,94,76,62,30.11,30.07,30.05,12,7,6,17,9,,0.31,5,,64
2013-11-12,80,76,71,75,73,68,100,85,74,30.06,30.01,29.97,12,7,6,14,8,,0.00,4,,40
2013-11-13,78,74,71,70,67,63,88,76,66,30.17,30.09,30.03,12,7,6,26,21,,0.00,7,Rain,38
2013-11-14,77,67,57,63,61,57,78,67,54,30.23,30.19,30.14,12,7,6,17,11,,0.00,4,,68
2013-11-15,80,73,66,72,68,64,83,74,65,30.13,30.09,30.04,12,7,6,12,9,,0.00,6,,89
2013-11-16,80,76,73,72,69,64,89,76,65,30.12,30.07,30.03,6,6,6,9,6,,0.00,6,,101
2013-11-17,82,76,69,72,71,68,94,80,70,30.09,30.05,30.01,6,6,6,12,7,,0.00,2,,112
2013-11-18,82,75,68,75,72,66,100,84,74,30.01,29.97,29.92,12,7,6,6,2,,0.00,4,Rain,125
2013-11-19,80,74,68,77,72,66,100,93,80,29.98,29.89,29.86,12,6,1,15,3,,0.00,6,Fog-Rain-Thunderstorm,266
2013-11-20,82,75,68,78,73,68,100,94,79,30.03,29.99,29.95,12,7,5,12,3,,0.00,4,Rain,53
2013-11-21,79,75,71,77,73,71,100,93,83,30.13,30.10,30.08,12,7,6,13,7,,0.16,7,Rain,82
2013-11-22,80,76,72,75,72,70,94,85,72,30.14,30.10,30.05,12,7,6,17,10,,0.00,5,,72
2013-11-23,80,76,71,72,71,70,94,84,74,30.07,30.02,29.98,6,6,6,12,5,,0.00,3,Rain,54
2013-11-24,77,72,66,70,69,64,94,86,78,30.08,30.05,30.02,6,6,6,23,7,,0.00,5,,38
2013-11-25,74,71,68,68,65,61,88,81,76,30.21,30.16,30.13,12,7,6,18,14,,0.04,6,,79
2013-11-26,81,75,69,79,75,72,100,93,83,30.01,29.95,29.88,12,7,5,14,11,,0.28,6,Rain,152
2013-11-27,77,74,71,75,71,64,100,93,73,29.91,29.86,29.81,6,5,3,17,9,,0.00,7,Rain,249
2013-11-28,71,68,66,61,59,57,83,69,59,30.20,30.17,30.13,12,7,6,20,16,,0.00,2,,37
2013-11-29,75,69,63,66,65,63,88,79,67,30.26,30.21,30.17,12,7,6,20,12,,0.00,6,,49
2013-11-30,77,73,69,68,67,66,88,79,69,30.20,30.15,30.10,6,6,6,17,10,,0.00,4,,74